createdAt,value
2023-02-22T00:00:44.466Z,11.20
2023-02-22T00:03:25.674Z,7.55
2023-02-22T00:05:58.338Z,7.97
2023-02-22T00:08:30.539Z,6.38
2023-02-22T00:10:58.241Z,5.28
2023-02-22T00:13:24.900Z,3.80
2023-02-22T00:15:51.668Z,5.38
2023-02-22T00:18:19.016Z,12.45
2023-02-22T00:20:46.015Z,6.03
2023-02-22T00:23:19.049Z,6.15
2023-02-22T00:25:46.676Z,18.13
2023-02-22T00:28:15.256Z,6.15
2023-02-22T00:30:45.057Z,7.72
2023-02-22T00:33:15.265Z,8.40
2023-02-22T00:35:44.708Z,4.32
2023-02-22T00:38:11.793Z,5.88
2023-02-22T00:40:40.199Z,10.48
2023-02-22T00:43:06.975Z,7.68
2023-02-22T00:45:34.423Z,11.85
2023-02-22T00:48:01.433Z,9.10
2023-02-22T00:50:29.246Z,8.65
2023-02-22T00:52:56.490Z,6.78
2023-02-22T00:55:25.045Z,5.35
2023-02-22T00:57:51.993Z,7.20
2023-02-22T01:00:27.021Z,6.93
2023-02-22T01:02:53.916Z,6.95
2023-02-22T01:05:22.543Z,10.25
2023-02-22T01:07:49.836Z,8.57
2023-02-22T01:10:19.397Z,5.45
2023-02-22T01:12:47.089Z,6.60
2023-02-22T01:15:13.751Z,9.02
2023-02-22T01:17:41.612Z,11.00
2023-02-22T01:20:12.453Z,10.10
2023-02-22T01:22:43.178Z,5.90
2023-02-22T01:25:10.916Z,4.28
2023-02-22T01:27:38.463Z,9.13
2023-02-22T01:30:09.274Z,8.48
2023-02-22T01:32:36.403Z,5.85
2023-02-22T01:35:08.567Z,7.72
2023-02-22T01:37:35.861Z,9.50
2023-02-22T01:40:04.110Z,5.95
2023-02-22T01:42:30.792Z,10.10
2023-02-22T01:45:31.177Z,6.93
2023-02-22T01:48:08.753Z,6.75
2023-02-22T01:50:38.746Z,7.78
2023-02-22T01:53:05.364Z,3.92
2023-02-22T01:55:32.345Z,6.00
2023-02-22T01:57:59.073Z,6.97
2023-02-22T02:00:27.668Z,6.07
2023-02-22T02:02:59.036Z,5.18
2023-02-22T02:05:31.420Z,7.72
2023-02-22T02:07:58.986Z,5.15
2023-02-22T02:10:26.864Z,7.18
2023-02-22T02:12:53.713Z,8.90
2023-02-22T02:15:23.373Z,11.48
2023-02-22T02:17:51.907Z,6.25
2023-02-22T02:20:41.278Z,4.53
2023-02-22T02:23:29.708Z,7.07
2023-02-22T02:26:17.707Z,6.82
2023-02-22T02:28:56.227Z,6.22
2023-02-22T02:32:20.264Z,6.50
2023-02-22T02:35:21.571Z,9.15
2023-02-22T02:38:09.712Z,5.35
2023-02-22T02:40:41.464Z,6.32
2023-02-22T02:43:17.686Z,5.15
2023-02-22T02:45:54.855Z,5.50
2023-02-22T02:48:23.548Z,4.97
2023-02-22T02:50:50.242Z,5.55
2023-02-22T02:53:21.007Z,6.20
2023-02-22T02:55:47.617Z,5.00
2023-02-22T02:58:20.086Z,5.15
2023-02-22T03:00:46.798Z,5.43
2023-02-22T03:03:42.202Z,5.10
2023-02-22T03:06:34.807Z,5.25
2023-02-22T03:09:19.717Z,3.38
2023-02-22T03:11:51.497Z,8.07
2023-02-22T03:14:24.826Z,8.68
2023-02-22T03:17:04.912Z,7.80
2023-02-22T03:19:38.905Z,6.85
2023-02-22T03:25:15.437Z,15.90
2023-02-22T03:27:53.343Z,12.50
2023-02-22T03:30:26.021Z,6.18
2023-02-22T03:32:55.245Z,5.63
2023-02-22T03:35:30.561Z,4.72
2023-02-22T03:37:58.431Z,7.30
2023-02-22T03:40:31.729Z,6.85
2023-02-22T03:43:07.061Z,8.50
2023-02-22T03:45:33.842Z,12.45
2023-02-22T03:48:26.142Z,7.20
2023-02-22T03:50:52.907Z,17.15
2023-02-22T03:53:19.586Z,15.68
2023-02-22T03:55:47.958Z,7.63
2023-02-22T03:58:14.664Z,12.82
2023-02-22T04:00:44.651Z,6.53
2023-02-22T04:03:11.787Z,11.32
2023-02-22T04:05:58.644Z,31.45
2023-02-22T04:08:25.345Z,12.55
2023-02-22T04:10:52.179Z,13.35
2023-02-22T04:13:19.040Z,16.58
2023-02-22T04:15:45.852Z,13.40
2023-02-22T04:18:12.581Z,10.38
2023-02-22T04:20:39.336Z,35.25
2023-02-22T04:23:05.946Z,65.90
2023-02-22T04:25:33.036Z,59.63
2023-02-22T04:27:59.779Z,95.28
2023-02-22T04:30:26.398Z,39.33
2023-02-22T04:32:53.100Z,25.27
2023-02-22T04:35:19.852Z,26.88
2023-02-22T04:37:46.481Z,85.88
2023-02-22T04:40:13.205Z,23.77
2023-02-22T04:42:40.014Z,21.38
2023-02-22T04:45:08.120Z,22.20
2023-02-22T04:47:35.514Z,11.30
2023-02-22T04:50:02.616Z,17.83
2023-02-22T04:52:29.377Z,21.92
2023-02-22T04:54:56.085Z,20.25
2023-02-22T04:57:22.700Z,16.05
2023-02-22T04:59:51.132Z,13.60
2023-02-22T05:02:18.375Z,17.65
2023-02-22T05:04:45.322Z,11.63
2023-02-22T05:07:12.352Z,19.50
2023-02-22T05:09:39.115Z,8.02
2023-02-22T05:12:06.021Z,19.67
2023-02-22T05:14:32.990Z,10.75
2023-02-22T05:16:59.754Z,9.48
2023-02-22T05:19:26.445Z,12.93
2023-02-22T05:21:53.431Z,37.00
2023-02-22T05:24:20.065Z,22.38
2023-02-22T05:26:46.757Z,23.35
2023-02-22T05:29:13.477Z,22.77
2023-02-22T05:31:41.957Z,16.10
2023-02-22T05:34:08.812Z,15.73
2023-02-22T05:36:35.547Z,27.35
2023-02-22T05:39:02.184Z,28.10
2023-02-22T05:41:28.824Z,15.75
2023-02-22T05:43:55.524Z,21.27
2023-02-22T05:46:22.210Z,15.45
2023-02-22T05:48:48.936Z,54.85
2023-02-22T05:51:15.913Z,47.20
2023-02-22T05:53:43.321Z,24.20
2023-02-22T05:56:09.945Z,27.20
2023-02-22T05:58:36.631Z,13.02
2023-02-22T06:01:03.617Z,29.77
2023-02-22T06:03:30.266Z,36.30
2023-02-22T06:05:58.064Z,22.92
2023-02-22T06:08:24.754Z,6.68
2023-02-22T06:10:51.466Z,7.38
2023-02-22T06:13:18.274Z,8.43
2023-02-22T06:15:44.911Z,7.53
2023-02-22T06:18:11.574Z,9.57
2023-02-22T06:20:38.305Z,6.78
2023-02-22T06:23:04.991Z,15.60
2023-02-22T06:25:31.914Z,8.25
2023-02-22T06:27:59.830Z,6.25
2023-02-22T06:30:26.905Z,5.35
2023-02-22T06:32:53.690Z,3.92
2023-02-22T06:35:20.639Z,10.00
2023-02-22T06:37:47.382Z,13.10
2023-02-22T06:40:14.889Z,11.88
2023-02-22T06:42:41.671Z,12.43
2023-02-22T06:45:08.787Z,16.30
2023-02-22T06:47:41.655Z,19.90
2023-02-22T06:50:18.521Z,10.50
2023-02-22T06:52:45.487Z,6.75
2023-02-22T06:55:12.121Z,7.32
2023-02-22T06:57:38.877Z,3.25
2023-02-22T07:00:07.292Z,4.03
2023-02-22T07:02:33.966Z,18.55
2023-02-22T07:05:00.657Z,16.25
2023-02-22T07:07:27.432Z,13.73
2023-02-22T07:09:54.008Z,6.18
2023-02-22T07:12:20.765Z,7.53
2023-02-22T07:14:47.383Z,10.30
2023-02-22T07:17:13.969Z,8.02
2023-02-22T07:19:40.616Z,7.70
2023-02-22T07:22:07.273Z,8.68
2023-02-22T07:24:35.152Z,5.82
2023-02-22T07:27:02.640Z,9.82
2023-02-22T07:29:29.403Z,6.05
2023-02-22T07:31:56.068Z,7.72
2023-02-22T07:34:22.945Z,17.00
2023-02-22T07:36:49.652Z,9.90
2023-02-22T07:39:16.237Z,4.88
2023-02-22T07:41:42.952Z,3.78
2023-02-22T07:44:09.712Z,13.63
2023-02-22T07:46:36.437Z,4.72
2023-02-22T07:49:03.108Z,2.75
2023-02-22T07:51:29.769Z,6.35
2023-02-22T07:53:56.481Z,5.45
2023-02-22T07:56:23.156Z,2.83
2023-02-22T07:58:49.881Z,7.90
2023-02-22T08:01:16.765Z,7.63
2023-02-22T08:03:43.839Z,3.17
2023-02-22T08:06:10.489Z,2.78
2023-02-22T08:08:37.159Z,2.28
2023-02-22T08:11:04.046Z,3.00
2023-02-22T08:13:30.696Z,2.10
2023-02-22T08:15:57.663Z,3.92
2023-02-22T08:18:24.695Z,66.93
2023-02-22T08:20:52.189Z,5.32
2023-02-22T08:23:19.267Z,9.80
2023-02-22T08:25:45.978Z,20.17
2023-02-22T08:28:15.120Z,15.35
2023-02-22T08:30:44.794Z,4.40
2023-02-22T08:33:14.628Z,24.98
2023-02-22T08:35:41.518Z,9.95
2023-02-22T08:38:08.422Z,10.20
2023-02-22T08:40:36.056Z,4.38
2023-02-22T08:43:02.978Z,2.53
2023-02-22T08:45:29.770Z,2.20
2023-02-22T08:47:57.762Z,5.43
2023-02-22T08:50:26.498Z,3.28
2023-02-22T08:52:58.695Z,3.33
2023-02-22T08:55:26.711Z,2.05
2023-02-22T08:57:53.651Z,3.88
2023-02-22T09:00:26.113Z,2.80
2023-02-22T09:02:52.880Z,3.22
2023-02-22T09:05:19.615Z,3.95
2023-02-22T09:07:46.358Z,2.42
2023-02-22T09:10:15.512Z,2.85
2023-02-22T09:12:42.712Z,8.82
2023-02-22T09:15:09.731Z,7.32
2023-02-22T09:17:37.436Z,31.20
2023-02-22T09:20:05.735Z,11.73
2023-02-22T09:22:32.441Z,11.60
2023-02-22T09:25:02.571Z,12.43
2023-02-22T09:27:34.657Z,5.90
2023-02-22T09:30:01.387Z,3.95
2023-02-22T09:32:28.266Z,5.78
2023-02-22T09:34:55.768Z,3.17
2023-02-22T09:37:22.489Z,4.30
2023-02-22T09:39:49.301Z,7.25
2023-02-22T09:42:15.925Z,2.25
2023-02-22T09:44:54.807Z,25.73
2023-02-22T09:47:38.915Z,31.73
2023-02-22T09:50:26.779Z,4.45
2023-02-22T09:53:05.398Z,3.05
2023-02-22T09:55:38.352Z,10.13
2023-02-22T09:58:23.766Z,5.03
2023-02-22T10:00:54.016Z,3.08
2023-02-22T10:03:28.539Z,6.47
2023-02-22T10:06:03.183Z,1.65
2023-02-22T10:08:33.276Z,3.42
2023-02-22T10:11:12.816Z,2.33
2023-02-22T10:13:58.205Z,3.90
2023-02-22T10:16:54.479Z,3.78
2023-02-22T10:19:21.080Z,2.78
2023-02-22T10:21:54.347Z,1.95
2023-02-22T10:24:45.632Z,1.80
2023-02-22T10:27:18.179Z,1.75
2023-02-22T10:29:48.359Z,2.28
2023-02-22T10:32:19.148Z,1.45
2023-02-22T10:34:51.560Z,2.92
2023-02-22T10:37:23.793Z,1.83
2023-02-22T10:39:50.528Z,3.28
2023-02-22T10:42:17.236Z,4.38
2023-02-22T10:44:43.971Z,5.85
2023-02-22T10:47:11.503Z,7.15
2023-02-22T10:49:44.263Z,5.38
2023-02-22T10:52:19.001Z,9.32
2023-02-22T10:54:46.856Z,3.45
2023-02-22T10:57:13.654Z,1.90
2023-02-22T10:59:42.059Z,2.85
2023-02-22T11:02:29.548Z,6.75
2023-02-22T11:04:59.410Z,2.13
2023-02-22T11:07:30.955Z,3.13
2023-02-22T11:10:05.534Z,2.30
2023-02-22T11:12:33.442Z,2.03
2023-02-22T11:15:22.325Z,7.00
2023-02-22T11:17:52.647Z,3.25
2023-02-22T11:20:25.828Z,5.55
2023-02-22T11:22:54.743Z,1.50
2023-02-22T11:25:23.421Z,8.52
2023-02-22T11:27:50.129Z,11.57
2023-02-22T11:30:29.582Z,14.00
2023-02-22T11:33:03.211Z,7.50
2023-02-22T11:35:31.243Z,13.95
2023-02-22T11:38:17.378Z,5.75
2023-02-22T11:40:44.901Z,3.28
2023-02-22T11:43:16.937Z,3.75
2023-02-22T11:46:03.072Z,7.22
2023-02-22T11:48:34.907Z,2.45
2023-02-22T11:51:16.905Z,3.45
2023-02-22T11:54:19.532Z,6.38
2023-02-22T11:56:48.248Z,3.70
2023-02-22T11:59:34.418Z,4.50
2023-02-22T12:02:19.741Z,1.20
2023-02-22T12:04:57.990Z,4.07
2023-02-22T12:07:30.846Z,3.38
2023-02-22T12:09:57.397Z,4.22
2023-02-22T12:12:51.286Z,2.70
2023-02-22T12:15:42.853Z,3.00
2023-02-22T12:18:24.877Z,4.00
2023-02-22T12:20:56.921Z,3.80
2023-02-22T12:24:04.025Z,5.50
2023-02-22T12:26:36.570Z,3.95
2023-02-22T12:29:27.750Z,3.28
2023-02-22T12:32:05.401Z,2.70
2023-02-22T12:34:56.359Z,2.63
2023-02-22T12:37:24.792Z,2.88
2023-02-22T12:40:09.669Z,5.25
2023-02-22T12:42:51.095Z,4.97
2023-02-22T12:45:30.618Z,4.18
2023-02-22T12:48:21.607Z,4.38
2023-02-22T12:50:49.887Z,4.28
2023-02-22T12:53:31.457Z,5.13
2023-02-22T12:56:19.858Z,3.13
2023-02-22T12:59:02.963Z,3.15
2023-02-22T13:01:34.853Z,3.33
2023-02-22T13:04:19.519Z,3.05
2023-02-22T13:07:11.638Z,6.75
2023-02-22T13:09:59.992Z,4.97
2023-02-22T13:12:35.909Z,3.55
2023-02-22T13:15:11.059Z,3.75
2023-02-22T13:18:16.341Z,3.83
2023-02-22T13:21:01.605Z,4.07
2023-02-22T13:23:34.156Z,4.70
2023-02-22T13:26:12.601Z,12.88
2023-02-22T13:28:43.530Z,8.20
2023-02-22T13:31:36.257Z,3.78
2023-02-22T13:34:16.736Z,5.07
2023-02-22T13:36:58.123Z,4.25
2023-02-22T13:40:06.788Z,4.45
2023-02-22T13:43:02.417Z,3.55
2023-02-22T13:45:31.711Z,3.75
2023-02-22T13:48:19.303Z,4.68
2023-02-22T13:50:55.401Z,3.58
2023-02-22T13:53:25.241Z,2.70
2023-02-22T13:55:54.112Z,3.47
2023-02-22T13:58:21.237Z,4.80
2023-02-22T14:00:50.247Z,4.00
2023-02-22T14:03:30.142Z,3.78
2023-02-22T14:06:00.937Z,5.43
2023-02-22T14:08:31.666Z,6.90
2023-02-22T14:11:01.888Z,3.58
2023-02-22T14:13:53.777Z,6.45
2023-02-22T14:16:25.359Z,5.15
2023-02-22T14:19:14.449Z,4.68
2023-02-22T14:22:04.484Z,6.72
2023-02-22T14:24:44.703Z,3.42
2023-02-22T14:27:11.331Z,6.72
2023-02-22T14:29:37.986Z,5.40
2023-02-22T14:32:10.546Z,3.88
2023-02-22T14:34:58.221Z,3.92
2023-02-22T14:37:29.672Z,4.25
2023-02-22T14:40:26.442Z,3.28
2023-02-22T14:43:01.989Z,2.75
2023-02-22T14:45:33.359Z,5.30
2023-02-22T14:48:11.629Z,4.13
2023-02-22T14:50:41.277Z,5.57
2023-02-22T14:53:12.897Z,7.43
2023-02-22T14:55:43.957Z,6.18
2023-02-22T14:58:18.686Z,5.72
2023-02-22T15:00:47.198Z,4.75
2023-02-22T15:03:37.566Z,5.95
2023-02-22T15:06:20.367Z,4.25
2023-02-22T15:08:50.057Z,3.60
2023-02-22T15:11:32.712Z,5.55
2023-02-22T15:14:00.273Z,4.03
2023-02-22T15:16:28.738Z,3.80
2023-02-22T15:19:00.001Z,7.22
2023-02-22T15:21:28.006Z,10.93
2023-02-22T15:23:58.242Z,11.63
2023-02-22T15:26:59.016Z,14.75
2023-02-22T15:29:33.412Z,19.58
2023-02-22T15:32:00.197Z,21.25
2023-02-22T15:34:31.423Z,16.52
2023-02-22T15:37:06.508Z,12.73
2023-02-22T15:39:34.603Z,21.33
2023-02-22T15:42:23.088Z,21.23
2023-02-22T15:44:54.872Z,22.25
2023-02-22T15:47:27.421Z,20.25
2023-02-22T15:50:23.723Z,20.83
2023-02-22T15:52:58.209Z,16.52
2023-02-22T15:55:27.708Z,13.57
2023-02-22T15:57:54.455Z,8.77
2023-02-22T16:00:36.049Z,5.65
2023-02-22T16:03:04.735Z,5.63
2023-02-22T16:05:47.261Z,6.38
2023-02-22T16:08:26.085Z,6.57
2023-02-22T16:11:05.251Z,6.45
2023-02-22T16:13:35.461Z,3.42
2023-02-22T16:16:22.493Z,7.22
2023-02-22T16:18:49.622Z,8.90
2023-02-22T16:21:21.829Z,14.93
2023-02-22T16:23:59.121Z,25.27
2023-02-22T16:26:32.466Z,40.38
2023-02-22T16:29:09.217Z,45.05
2023-02-22T16:31:39.639Z,40.63
2023-02-22T16:34:07.573Z,34.55
2023-02-22T16:36:52.482Z,43.30
2023-02-22T16:39:37.417Z,33.65
2023-02-22T16:42:05.107Z,22.60
2023-02-22T16:44:31.738Z,19.55
2023-02-22T16:46:59.402Z,36.47
2023-02-22T16:49:26.055Z,31.88
2023-02-22T16:51:59.619Z,34.70
2023-02-22T16:54:27.339Z,31.92
2023-02-22T16:56:55.808Z,23.13
2023-02-22T16:59:22.499Z,133.95
2023-02-22T17:01:49.299Z,40.92
2023-02-22T17:04:21.207Z,43.03
2023-02-22T17:06:48.124Z,47.20
2023-02-22T17:09:15.581Z,76.05
2023-02-22T17:11:42.629Z,55.75
2023-02-22T17:14:10.463Z,91.70
2023-02-22T17:16:37.095Z,83.30
2023-02-22T17:19:05.148Z,63.63
2023-02-22T17:21:31.907Z,45.00
2023-02-22T17:23:58.558Z,36.17
2023-02-22T17:26:26.275Z,34.38
2023-02-22T17:28:53.125Z,36.75
2023-02-22T17:31:21.877Z,36.95
2023-02-22T17:33:48.893Z,36.40
2023-02-22T17:36:16.078Z,49.65
2023-02-22T17:38:43.272Z,40.40
2023-02-22T17:41:09.902Z,43.85
2023-02-22T17:43:36.763Z,25.20
2023-02-22T17:46:08.046Z,24.92
2023-02-22T17:48:35.251Z,62.80
2023-02-22T17:51:06.163Z,56.17
2023-02-22T17:53:33.258Z,56.78
2023-02-22T17:56:04.685Z,48.63
2023-02-22T17:58:31.431Z,60.25
2023-02-22T18:00:59.318Z,60.90
2023-02-22T18:03:26.550Z,56.33
2023-02-22T18:05:56.212Z,47.42
2023-02-22T18:08:26.239Z,41.90
2023-02-22T18:10:56.361Z,39.25
2023-02-22T18:13:24.428Z,38.53
2023-02-22T18:15:51.211Z,37.25
2023-02-22T18:18:18.072Z,37.20
2023-02-22T18:20:46.555Z,33.90
2023-02-22T18:23:19.479Z,26.27
2023-02-22T18:26:07.615Z,25.38
2023-02-22T18:28:36.330Z,26.25
2023-02-22T18:31:07.311Z,20.75
2023-02-22T18:33:34.115Z,19.80
2023-02-22T18:36:00.783Z,20.88
2023-02-22T18:38:27.454Z,21.80
2023-02-22T18:41:06.526Z,20.60
2023-02-22T18:43:35.273Z,18.52
2023-02-22T18:46:21.518Z,18.08
2023-02-22T18:48:49.053Z,15.45
2023-02-22T18:51:17.143Z,16.60
2023-02-22T18:53:47.154Z,11.80
2023-02-22T18:56:21.842Z,13.13
2023-02-22T18:58:52.412Z,14.18
2023-02-22T19:01:19.309Z,16.25
2023-02-22T19:03:48.975Z,22.85
2023-02-22T19:06:17.480Z,19.08
2023-02-22T19:08:44.833Z,21.88
2023-02-22T19:11:17.957Z,32.00
2023-02-22T19:13:46.448Z,14.57
2023-02-22T19:16:13.264Z,17.52
2023-02-22T19:18:40.009Z,29.33
2023-02-22T19:21:08.695Z,25.13
2023-02-22T19:23:37.466Z,24.17
2023-02-22T19:26:04.884Z,19.08
2023-02-22T19:28:34.323Z,39.40
2023-02-22T19:31:14.968Z,25.20
2023-02-22T19:33:41.856Z,29.00
2023-02-22T19:36:09.274Z,32.92
2023-02-22T19:38:36.088Z,30.23
2023-02-22T19:41:12.607Z,22.48
2023-02-22T19:43:39.494Z,37.05
2023-02-22T19:46:06.474Z,41.92
2023-02-22T19:48:33.275Z,36.00
2023-02-22T19:51:06.815Z,45.58
2023-02-22T19:53:39.100Z,64.00
2023-02-22T19:56:10.775Z,73.13
2023-02-22T19:58:58.533Z,41.08
2023-02-22T20:01:30.387Z,51.58
2023-02-22T20:04:00.999Z,33.42
2023-02-22T20:06:29.067Z,53.30
2023-02-22T20:08:56.117Z,61.42
2023-02-22T20:11:23.426Z,96.45
2023-02-22T20:13:50.123Z,47.72
2023-02-22T20:16:17.131Z,62.30
2023-02-22T20:18:44.706Z,71.18
2023-02-22T20:21:14.020Z,77.00
2023-02-22T20:23:44.286Z,121.82
2023-02-22T20:26:30.527Z,72.32
2023-02-22T20:28:59.286Z,45.00
2023-02-22T20:31:26.220Z,32.42
2023-02-22T20:33:54.154Z,31.38
2023-02-22T20:36:22.228Z,54.30
2023-02-22T20:38:51.463Z,32.88
2023-02-22T20:41:29.682Z,26.45
2023-02-22T20:43:56.549Z,24.23
2023-02-22T20:46:24.076Z,21.05
2023-02-22T20:48:58.411Z,21.02
2023-02-22T20:51:25.604Z,20.05
2023-02-22T20:53:52.424Z,25.00
2023-02-22T20:56:21.051Z,34.58
2023-02-22T20:58:47.891Z,23.95
2023-02-22T21:01:17.179Z,20.77
2023-02-22T21:03:44.193Z,18.77
2023-02-22T21:06:14.989Z,16.63
2023-02-22T21:08:45.748Z,14.80
2023-02-22T21:11:13.261Z,19.80
2023-02-22T21:13:40.528Z,15.18
2023-02-22T21:16:07.825Z,32.33
2023-02-22T21:18:34.507Z,23.17
2023-02-22T21:21:12.436Z,17.70
2023-02-22T21:23:40.207Z,10.90
2023-02-22T21:26:07.412Z,10.98
2023-02-22T21:28:53.132Z,11.50
2023-02-22T21:31:24.376Z,13.20
2023-02-22T21:33:52.985Z,12.65
2023-02-22T21:36:20.081Z,37.72
2023-02-22T21:38:49.016Z,30.65
2023-02-22T21:41:16.837Z,33.65
2023-02-22T21:43:43.900Z,45.72
2023-02-22T21:46:10.838Z,16.08
2023-02-22T21:48:45.128Z,9.80
2023-02-22T21:51:13.936Z,22.65
2023-02-22T21:53:47.881Z,26.08
2023-02-22T21:56:15.641Z,33.75
2023-02-22T21:58:46.042Z,28.42
2023-02-22T22:01:17.384Z,10.55
2023-02-22T22:03:45.167Z,16.65
2023-02-22T22:06:13.676Z,18.48
2023-02-22T22:08:41.272Z,16.90
2023-02-22T22:11:09.398Z,18.48
2023-02-22T22:13:37.733Z,14.32
2023-02-22T22:16:06.240Z,15.00
2023-02-22T22:18:32.909Z,15.80
2023-02-22T22:20:59.794Z,13.80
2023-02-22T22:23:26.596Z,11.68
2023-02-22T22:26:02.112Z,10.90
2023-02-22T22:28:28.812Z,16.80
2023-02-22T22:30:55.563Z,12.27
2023-02-22T22:33:22.470Z,9.85
2023-02-22T22:35:49.252Z,12.38
2023-02-22T22:38:15.886Z,9.43
2023-02-22T22:40:42.545Z,14.02
2023-02-22T22:43:09.158Z,16.35
2023-02-22T22:45:35.843Z,14.27
2023-02-22T22:48:04.750Z,21.77
2023-02-22T22:50:31.509Z,22.52
2023-02-22T22:52:58.215Z,17.98
2023-02-22T22:55:24.939Z,14.63
2023-02-22T22:57:54.281Z,16.60
2023-02-22T23:00:34.886Z,16.75
2023-02-22T23:03:01.702Z,17.48
2023-02-22T23:05:29.299Z,22.17
2023-02-22T23:07:56.431Z,21.35
2023-02-22T23:10:27.297Z,21.08
2023-02-22T23:12:55.508Z,18.77
2023-02-22T23:15:24.522Z,20.45
2023-02-22T23:17:56.038Z,23.52
2023-02-22T23:20:26.222Z,14.68
2023-02-22T23:22:53.845Z,16.13
2023-02-22T23:25:21.065Z,12.73
2023-02-22T23:27:48.223Z,13.15
2023-02-22T23:30:18.641Z,10.98
2023-02-22T23:32:46.779Z,14.05
2023-02-22T23:35:14.911Z,12.00
2023-02-22T23:37:42.349Z,13.55
2023-02-22T23:40:16.957Z,13.15
2023-02-22T23:42:48.851Z,12.45
2023-02-22T23:45:22.822Z,13.75
2023-02-22T23:50:25.527Z,15.50
2023-02-22T23:52:59.577Z,18.45
2023-02-22T23:57:59.331Z,11.10
